createdAt,value
2022-10-14T00:02:37.088Z,12.45
2022-10-14T00:07:40.759Z,13.70
2022-10-14T00:12:42.476Z,12.57
2022-10-14T00:17:44.148Z,13.77
2022-10-14T00:22:45.756Z,12.82
2022-10-14T00:27:47.325Z,12.30
2022-10-14T00:32:48.950Z,14.38
2022-10-14T00:37:50.690Z,14.07
2022-10-14T00:42:52.440Z,12.30
2022-10-14T00:47:54.096Z,13.82
2022-10-14T00:52:56.300Z,14.10
2022-10-14T00:57:57.940Z,14.82
2022-10-14T01:02:59.494Z,13.85
2022-10-14T01:08:18.954Z,15.88
2022-10-14T01:13:24.328Z,12.93
2022-10-14T01:18:25.886Z,15.77
2022-10-14T01:23:55.409Z,13.30
2022-10-14T01:29:14.519Z,11.70
2022-10-14T01:34:25.932Z,15.35
2022-10-14T01:39:33.119Z,11.82
2022-10-14T01:44:42.048Z,13.37
2022-10-14T01:50:07.764Z,12.95
2022-10-14T01:55:15.957Z,18.73
2022-10-14T02:00:17.887Z,13.70
2022-10-14T02:05:43.922Z,15.77
2022-10-14T02:11:04.218Z,15.80
2022-10-14T02:16:36.877Z,16.00
2022-10-14T02:21:42.846Z,19.05
2022-10-14T02:26:46.386Z,58.28
2022-10-14T02:31:50.986Z,23.23
2022-10-14T02:36:55.478Z,16.27
2022-10-14T02:41:58.080Z,17.00
2022-10-14T02:46:59.643Z,21.77
2022-10-14T02:52:03.675Z,18.23
2022-10-14T02:57:05.292Z,17.35
2022-10-14T03:02:07.650Z,15.38
2022-10-14T03:07:11.099Z,16.83
2022-10-14T03:12:18.796Z,13.80
2022-10-14T03:17:20.978Z,16.65
2022-10-14T03:22:24.704Z,15.45
2022-10-14T03:27:26.524Z,12.98
2022-10-14T03:32:33.994Z,15.85
2022-10-14T03:37:55.854Z,17.70
2022-10-14T03:43:04.056Z,19.02
2022-10-14T03:48:15.732Z,15.18
2022-10-14T03:53:17.337Z,14.32
2022-10-14T03:58:19.117Z,14.35
2022-10-14T04:03:32.154Z,17.35
2022-10-14T04:08:35.207Z,18.13
2022-10-14T04:13:49.554Z,17.33
2022-10-14T04:18:51.185Z,15.27
2022-10-14T04:23:56.514Z,18.02
2022-10-14T04:29:10.659Z,16.67
2022-10-14T04:34:23.036Z,17.05
2022-10-14T04:39:26.645Z,23.52
2022-10-14T04:44:28.498Z,17.90
2022-10-14T04:49:30.253Z,15.68
2022-10-14T04:54:42.807Z,26.02
2022-10-14T04:59:44.932Z,15.85
2022-10-14T05:04:53.579Z,14.85
2022-10-14T05:09:56.863Z,93.85
2022-10-14T05:15:14.665Z,211.57
2022-10-14T05:20:26.732Z,203.20
2022-10-14T05:25:31.085Z,20.13
2022-10-14T05:30:34.920Z,16.88
2022-10-14T05:35:58.054Z,15.27
2022-10-14T05:41:01.609Z,15.13
2022-10-14T05:46:03.479Z,13.00
2022-10-14T05:51:10.443Z,14.15
2022-10-14T05:56:13.557Z,15.45
2022-10-14T06:01:15.667Z,14.73
2022-10-14T06:06:18.306Z,10.45
2022-10-14T06:11:19.917Z,13.13
2022-10-14T06:16:21.624Z,11.25
2022-10-14T06:21:23.365Z,12.00
2022-10-14T06:26:24.987Z,10.45
2022-10-14T06:31:31.234Z,14.95
2022-10-14T06:36:35.127Z,9.68
2022-10-14T06:41:36.713Z,12.80
2022-10-14T06:46:38.323Z,9.35
2022-10-14T06:51:40.568Z,11.48
2022-10-14T06:56:42.168Z,12.30
2022-10-14T07:01:43.847Z,8.93
2022-10-14T07:06:45.366Z,11.27
2022-10-14T07:11:46.951Z,8.27
2022-10-14T07:16:48.628Z,6.78
2022-10-14T07:21:50.225Z,8.13
2022-10-14T07:26:52.027Z,8.05
2022-10-14T07:31:53.833Z,6.38
2022-10-14T07:36:55.395Z,8.23
2022-10-14T07:41:57.043Z,7.70
2022-10-14T07:46:59.696Z,8.10
2022-10-14T07:52:01.404Z,7.88
2022-10-14T07:57:03.141Z,9.13
2022-10-14T08:02:05.002Z,8.73
2022-10-14T08:07:06.616Z,8.48
2022-10-14T08:12:08.352Z,11.85
2022-10-14T08:17:09.878Z,10.20
2022-10-14T08:22:11.579Z,6.85
2022-10-14T08:27:13.225Z,6.68
2022-10-14T08:32:15.384Z,14.02
2022-10-14T08:37:16.992Z,7.50
2022-10-14T08:42:30.085Z,7.82
2022-10-14T08:47:37.549Z,8.20
2022-10-14T08:52:47.058Z,9.32
2022-10-14T08:57:54.056Z,8.80
2022-10-14T09:02:58.521Z,9.07
2022-10-14T09:08:00.770Z,11.13
2022-10-14T09:13:28.332Z,7.70
2022-10-14T09:18:39.771Z,13.07
2022-10-14T09:23:41.288Z,8.10
2022-10-14T09:28:44.547Z,7.53
2022-10-14T09:33:46.337Z,7.88
2022-10-14T09:38:55.453Z,9.40
2022-10-14T09:44:25.472Z,7.43
2022-10-14T09:49:47.922Z,6.47
2022-10-14T09:54:58.745Z,5.85
2022-10-14T10:00:04.033Z,7.45
2022-10-14T10:05:27.980Z,7.50
2022-10-14T10:10:30.870Z,7.65
2022-10-14T10:15:32.461Z,6.03
2022-10-14T10:20:34.182Z,6.43
2022-10-14T10:25:35.740Z,7.18
2022-10-14T10:31:03.115Z,6.68
2022-10-14T10:36:29.069Z,7.00
2022-10-14T10:41:53.365Z,6.32
2022-10-14T10:47:31.408Z,6.97
2022-10-14T10:52:47.961Z,9.40
2022-10-14T10:58:27.618Z,9.13
2022-10-14T11:03:38.815Z,5.70
2022-10-14T11:09:12.072Z,7.30
2022-10-14T11:14:48.572Z,4.95
2022-10-14T11:20:15.776Z,6.45
2022-10-14T11:25:44.921Z,5.32
2022-10-14T11:31:05.067Z,6.37
2022-10-14T11:36:12.431Z,4.55
2022-10-14T11:41:25.224Z,6.72
2022-10-14T11:46:32.710Z,5.68
2022-10-14T11:51:40.957Z,4.70
2022-10-14T11:57:05.955Z,4.00
2022-10-14T12:02:32.024Z,3.78
2022-10-14T12:07:42.009Z,7.60
2022-10-14T12:17:52.269Z,2.40
2022-10-14T12:22:56.319Z,3.83
2022-10-14T12:27:58.417Z,3.50
2022-10-14T12:33:09.492Z,2.92
2022-10-14T12:38:14.787Z,5.68
2022-10-14T12:43:26.314Z,4.35
2022-10-14T12:48:33.220Z,4.05
2022-10-14T12:53:36.315Z,5.70
2022-10-14T12:58:50.624Z,4.00
2022-10-14T13:09:13.026Z,4.78
2022-10-14T13:14:25.975Z,5.28
2022-10-14T13:19:33.344Z,3.38
2022-10-14T13:24:43.914Z,3.58
2022-10-14T13:30:03.722Z,3.95
2022-10-14T13:35:17.602Z,4.15
2022-10-14T13:40:21.047Z,4.63
2022-10-14T13:45:32.375Z,4.70
2022-10-14T13:50:38.006Z,4.47
2022-10-14T13:55:54.680Z,4.93
2022-10-14T14:00:59.364Z,6.93
2022-10-14T14:06:02.040Z,7.25
2022-10-14T14:11:22.769Z,5.78
2022-10-14T14:16:29.196Z,6.32
2022-10-14T14:21:31.052Z,5.68
2022-10-14T14:26:35.558Z,6.35
2022-10-14T14:32:04.900Z,5.85
2022-10-14T14:37:16.620Z,7.85
2022-10-14T14:42:25.808Z,4.28
2022-10-14T14:47:29.233Z,6.18
2022-10-14T14:52:31.240Z,5.20
2022-10-14T14:57:32.863Z,6.20
2022-10-14T15:02:35.020Z,4.32
2022-10-14T15:07:37.020Z,5.25
2022-10-14T15:12:41.979Z,4.07
2022-10-14T15:17:47.635Z,5.60
2022-10-14T15:22:49.886Z,4.55
2022-10-14T15:27:53.033Z,3.38
2022-10-14T15:32:57.776Z,3.03
2022-10-14T15:37:59.372Z,4.03
2022-10-14T15:43:01.099Z,3.90
2022-10-14T15:48:06.593Z,4.72
2022-10-14T15:53:09.190Z,1.73
2022-10-14T15:58:10.704Z,2.75
2022-10-14T16:03:12.379Z,2.35
2022-10-14T16:08:18.087Z,2.05
2022-10-14T16:13:20.005Z,2.30
2022-10-14T16:18:23.283Z,1.73
2022-10-14T16:23:29.744Z,1.85
2022-10-14T16:28:34.948Z,2.80
2022-10-14T16:33:38.282Z,1.88
2022-10-14T16:38:45.008Z,2.85
2022-10-14T16:43:47.584Z,2.72
2022-10-14T16:48:50.865Z,3.25
2022-10-14T16:53:52.380Z,2.45
2022-10-14T16:58:53.928Z,1.45
2022-10-14T17:03:57.137Z,1.10
2022-10-14T17:08:58.851Z,3.38
2022-10-14T17:14:01.288Z,3.33
2022-10-14T17:19:02.867Z,4.63
2022-10-14T17:24:04.899Z,3.95
2022-10-14T17:29:06.477Z,3.83
2022-10-14T17:34:08.081Z,2.55
2022-10-14T17:39:18.710Z,2.22
2022-10-14T17:44:25.892Z,2.25
2022-10-14T17:49:27.785Z,1.67
2022-10-14T17:54:32.370Z,2.60
2022-10-14T17:59:34.827Z,2.25
2022-10-14T18:04:37.457Z,1.80
2022-10-14T18:09:39.065Z,3.20
2022-10-14T18:14:41.267Z,3.50
2022-10-14T18:19:45.067Z,3.08
2022-10-14T18:24:49.995Z,2.95
2022-10-14T18:29:51.713Z,4.60
2022-10-14T18:34:53.239Z,5.88
2022-10-14T18:39:54.862Z,5.65
2022-10-14T18:44:56.508Z,1.73
2022-10-14T18:49:59.595Z,2.83
2022-10-14T18:55:01.209Z,2.78
2022-10-14T19:00:03.471Z,7.70
2022-10-14T19:05:05.420Z,4.55
2022-10-14T19:10:07.310Z,3.75
2022-10-14T19:15:10.954Z,3.10
2022-10-14T19:20:12.488Z,3.80
2022-10-14T19:25:16.498Z,2.53
2022-10-14T19:30:18.117Z,5.40
2022-10-14T19:35:21.700Z,6.32
2022-10-14T19:40:23.816Z,4.90
2022-10-14T19:45:25.451Z,5.68
2022-10-14T19:50:26.971Z,4.40
2022-10-14T19:55:28.590Z,6.80
2022-10-14T20:00:30.252Z,8.40
2022-10-14T20:05:31.816Z,6.55
2022-10-14T20:10:33.393Z,9.05
2022-10-14T20:15:34.929Z,5.78
2022-10-14T20:20:40.009Z,7.45
2022-10-14T20:25:41.751Z,9.18
2022-10-14T20:30:43.721Z,10.13
2022-10-14T20:35:45.400Z,6.32
2022-10-14T20:40:46.934Z,7.25
2022-10-14T20:45:48.503Z,4.57
2022-10-14T20:50:50.047Z,6.60
2022-10-14T20:55:52.109Z,4.20
2022-10-14T21:00:53.656Z,8.60
2022-10-14T21:05:55.249Z,7.03
2022-10-14T21:10:58.470Z,5.60
2022-10-14T21:15:59.989Z,8.82
2022-10-14T21:21:02.080Z,6.32
2022-10-14T21:26:03.635Z,2.42
2022-10-14T21:31:07.574Z,1.58
2022-10-14T21:36:14.535Z,0.85
2022-10-14T21:41:16.127Z,0.68
2022-10-14T21:46:18.076Z,2.45
2022-10-14T21:51:19.625Z,7.10
2022-10-14T21:56:21.431Z,2.47
2022-10-14T22:01:26.951Z,0.77
2022-10-14T22:06:28.636Z,3.22
2022-10-14T22:11:32.884Z,1.92
2022-10-14T22:16:35.465Z,1.10
2022-10-14T22:21:39.870Z,2.47
2022-10-14T22:26:41.845Z,2.40
2022-10-14T22:31:44.415Z,2.30
2022-10-14T22:36:46.094Z,1.27
2022-10-14T22:41:47.694Z,0.80
2022-10-14T22:46:49.291Z,0.52
2022-10-14T22:51:53.234Z,1.85
2022-10-14T22:56:57.512Z,0.90
2022-10-14T23:01:59.102Z,0.93
2022-10-14T23:07:04.466Z,2.05
2022-10-14T23:12:08.491Z,0.95
2022-10-14T23:17:10.090Z,0.93
2022-10-14T23:22:11.698Z,1.45
2022-10-14T23:27:13.298Z,1.65
2022-10-14T23:32:14.901Z,0.68
2022-10-14T23:37:16.475Z,2.83
2022-10-14T23:42:18.248Z,1.42
2022-10-14T23:47:19.826Z,1.52
2022-10-14T23:52:21.389Z,1.45
2022-10-14T23:57:25.644Z,0.95
